Comet, North Carolina
Current Conditions -  °F | °C
As of 4:15 PM on Sunday 21 Dec 2014 (Local Time) from KGEV Reporting Station
Overcast Overcast  
Wind Chill:   Ceiling: 1600
Heat Index:   Visibility: 7mi
Dew Point:   Wind: 5mph
Humidity: 79%   Direction: 130°SE
Pressure: 30.13"   Gusts: NA
Location:  36.524°N, 81.538°W
Report Text: KGEV 212115Z AUTO 13004KT 7SM OVC016 03/00 A3013 RMK AO2 T00321001
Loading
Personal Weather Stations






























Interactive Weather Map New forecast layout! Learn more

10-Day Weather Forecast

Advertisements
Track Severe Weather on mobile